Time;durP1;ratioP1;P1;durP2;ratioP2;P2;SDS_P1;SDS_P2;PMS_P1;PMS_P2;Temp;Humidity;BMP_temperature;BMP_pressure;BME280_temperature;BME280_humidity;BME280_pressure;Samples;Min_cycle;Max_cycle;Signal;HPM_P1;HPM_P2
2022/05/09 00:01:55;;;;;;;9.95;4.20;;;;;;;;;;5109840;27;20468;-68
2022/05/09 00:04:21;;;;;;;10.90;4.72;;;;;;;;;;5111122;27;20050;-68
2022/05/09 00:06:48;;;;;;;15.18;5.03;;;;;;;;;;5112425;27;20071;-69
2022/05/09 00:09:15;;;;;;;6.10;3.72;;;;;;;;;;5110854;27;20061;-68
2022/05/09 00:11:41;;;;;;;10.00;4.15;;;;;;;;;;5112330;28;20043;-68
2022/05/09 00:14:07;;;;;;;10.80;4.85;;;;;;;;;;5105071;28;20035;-69
2022/05/09 00:16:34;;;;;;;8.10;4.40;;;;;;;;;;5108071;28;20040;-68
2022/05/09 00:19:05;;;;;;;7.32;4.00;;;;;;;;;;5111200;28;20043;-68
2022/05/09 00:21:32;;;;;;;12.40;4.82;;;;;;;;;;5106818;28;20542;-69
2022/05/09 00:23:58;;;;;;;9.70;5.07;;;;;;;;;;5105530;28;20544;-69
2022/05/09 00:26:27;;;;;;;15.27;4.53;;;;;;;;;;5110504;28;20031;-69
2022/05/09 00:28:55;;;;;;;9.95;4.65;;;;;;;;;;5107594;28;20528;-69
2022/05/09 00:31:21;;;;;;;17.48;4.95;;;;;;;;;;5109667;28;20046;-69
2022/05/09 00:33:47;;;;;;;13.55;4.88;;;;;;;;;;5108932;28;20043;-69
2022/05/09 00:36:15;;;;;;;13.65;4.43;;;;;;;;;;5107968;28;20046;-69
2022/05/09 00:38:41;;;;;;;12.60;4.18;;;;;;;;;;5111818;28;20119;-69
2022/05/09 00:43:53;;;;;;;8.30;4.57;;;;;;;;;;5109233;27;20673;-69
2022/05/09 00:46:19;;;;;;;9.68;4.32;;;;;;;;;;5112612;28;20035;-68
2022/05/09 00:48:45;;;;;;;11.80;4.82;;;;;;;;;;5103829;28;20036;-69
2022/05/09 00:51:14;;;;;;;8.23;4.07;;;;;;;;;;5103074;27;20066;-68
2022/05/09 00:53:41;;;;;;;11.90;4.45;;;;;;;;;;5116026;27;20103;-69
2022/05/09 00:56:11;;;;;;;10.63;4.30;;;;;;;;;;5109820;27;20044;-69
2022/05/09 00:58:46;;;;;;;10.77;5.07;;;;;;;;;;5111456;27;20083;-69
2022/05/09 01:01:13;;;;;;;8.80;4.32;;;;;;;;;;5115631;27;20062;-69
2022/05/09 01:03:49;;;;;;;9.30;4.68;;;;;;;;;;5111197;28;20389;-69
2022/05/09 01:06:15;;;;;;;13.85;3.83;;;;;;;;;;5111768;28;20039;-69
2022/05/09 01:08:41;;;;;;;9.18;4.18;;;;;;;;;;5111887;28;20035;-68
2022/05/09 01:11:09;;;;;;;13.38;4.40;;;;;;;;;;5117310;27;20129;-68
2022/05/09 01:13:37;;;;;;;12.38;5.13;;;;;;;;;;5113083;27;20130;-68
2022/05/09 01:16:04;;;;;;;11.88;4.05;;;;;;;;;;5114201;27;20039;-68
2022/05/09 01:18:30;;;;;;;15.93;4.55;;;;;;;;;;5114726;27;20079;-69
2022/05/09 01:20:57;;;;;;;9.10;4.32;;;;;;;;;;5109677;27;20115;-69
2022/05/09 01:23:23;;;;;;;9.20;4.80;;;;;;;;;;5112876;27;20511;-69
2022/05/09 01:25:49;;;;;;;16.27;4.93;;;;;;;;;;5076993;28;20189;-69
2022/05/09 01:28:16;;;;;;;9.93;3.67;;;;;;;;;;5110665;27;20040;-68
2022/05/09 01:30:50;;;;;;;13.05;5.28;;;;;;;;;;5117730;27;20039;-68
2022/05/09 01:33:31;;;;;;;14.38;4.65;;;;;;;;;;5098169;28;20036;-69
2022/05/09 01:35:59;;;;;;;10.60;5.10;;;;;;;;;;5109134;27;20039;-68
2022/05/09 01:38:31;;;;;;;11.00;4.88;;;;;;;;;;5114825;27;20082;-69
2022/05/09 01:40:57;;;;;;;11.73;5.22;;;;;;;;;;5114138;27;20138;-68
2022/05/09 01:43:37;;;;;;;5.97;4.00;;;;;;;;;;5104968;27;20043;-68
2022/05/09 01:46:05;;;;;;;13.55;4.40;;;;;;;;;;5113489;27;20040;-68
2022/05/09 01:51:16;;;;;;;8.48;4.20;;;;;;;;;;5111106;27;20047;-69
2022/05/09 01:53:52;;;;;;;14.38;4.65;;;;;;;;;;5111121;28;20040;-68
2022/05/09 01:56:26;;;;;;;7.97;4.57;;;;;;;;;;5111049;28;20044;-69
2022/05/09 01:58:53;;;;;;;8.23;4.13;;;;;;;;;;5099862;27;20099;-69
2022/05/09 02:01:19;;;;;;;8.90;4.35;;;;;;;;;;5110102;28;20500;-68
2022/05/09 02:03:46;;;;;;;7.80;4.25;;;;;;;;;;5110352;28;20047;-69
2022/05/09 02:06:12;;;;;;;12.45;4.38;;;;;;;;;;5109301;28;20545;-68
2022/05/09 02:08:39;;;;;;;9.98;4.35;;;;;;;;;;5113326;27;20089;-68
2022/05/09 02:11:05;;;;;;;10.93;4.13;;;;;;;;;;5113344;27;20052;-68
2022/05/09 02:13:32;;;;;;;12.10;4.00;;;;;;;;;;5113039;27;20142;-68
2022/05/09 02:15:58;;;;;;;10.00;4.38;;;;;;;;;;5116298;27;20054;-68
2022/05/09 02:18:24;;;;;;;8.77;4.80;;;;;;;;;;5113052;27;20451;-68
2022/05/09 02:20:51;;;;;;;13.23;4.78;;;;;;;;;;5111709;27;20050;-68
2022/05/09 02:23:17;;;;;;;9.13;4.10;;;;;;;;;;5113165;27;20397;-68
2022/05/09 02:25:45;;;;;;;11.07;4.35;;;;;;;;;;5110361;28;20036;-68
2022/05/09 02:28:12;;;;;;;8.30;4.15;;;;;;;;;;5103610;27;20089;-69
2022/05/09 02:30:39;;;;;;;10.30;5.70;;;;;;;;;;5113664;27;20381;-69
2022/05/09 02:33:06;;;;;;;10.05;4.90;;;;;;;;;;5108011;28;20071;-69
2022/05/09 02:35:33;;;;;;;9.07;4.05;;;;;;;;;;5114863;27;20051;-68
2022/05/09 02:37:59;;;;;;;12.65;4.70;;;;;;;;;;5111574;27;20462;-68
2022/05/09 02:40:25;;;;;;;6.82;3.95;;;;;;;;;;5108109;28;20109;-68
2022/05/09 02:42:52;;;;;;;7.13;3.70;;;;;;;;;;5090347;27;20063;-68
2022/05/09 02:45:18;;;;;;;7.28;3.72;;;;;;;;;;5105761;27;20408;-69
2022/05/09 02:47:45;;;;;;;11.48;4.10;;;;;;;;;;5114580;27;20404;-68
2022/05/09 02:50:14;;;;;;;9.05;3.95;;;;;;;;;;5104602;27;20409;-68
2022/05/09 02:52:41;;;;;;;13.32;5.05;;;;;;;;;;5103517;28;20043;-68
2022/05/09 02:55:08;;;;;;;12.20;4.40;;;;;;;;;;5109353;27;20043;-68
2022/05/09 02:57:35;;;;;;;8.65;5.32;;;;;;;;;;5109838;27;20140;-68
2022/05/09 03:00:01;;;;;;;14.73;4.90;;;;;;;;;;5105178;28;20085;-68
2022/05/09 03:02:28;;;;;;;9.63;4.38;;;;;;;;;;5111882;27;20046;-68
2022/05/09 03:04:54;;;;;;;9.65;3.72;;;;;;;;;;5103150;28;20424;-68
2022/05/09 03:07:20;;;;;;;14.70;4.80;;;;;;;;;;5109493;28;20042;-68
2022/05/09 03:09:48;;;;;;;11.30;4.97;;;;;;;;;;5108666;28;20520;-68
2022/05/09 03:12:14;;;;;;;7.90;4.43;;;;;;;;;;5113374;27;20096;-68
2022/05/09 03:14:41;;;;;;;10.63;4.53;;;;;;;;;;5094218;28;20047;-68
2022/05/09 03:17:09;;;;;;;8.88;4.22;;;;;;;;;;5097959;28;20035;-68
2022/05/09 03:19:35;;;;;;;6.57;3.60;;;;;;;;;;5110700;27;20077;-68
2022/05/09 03:22:01;;;;;;;8.07;4.20;;;;;;;;;;5112717;27;20533;-68
2022/05/09 03:24:28;;;;;;;8.88;3.90;;;;;;;;;;5111974;27;20088;-68
2022/05/09 03:26:55;;;;;;;7.18;4.00;;;;;;;;;;5112736;27;20727;-68
2022/05/09 03:29:24;;;;;;;7.45;4.15;;;;;;;;;;5094836;28;20061;-68
2022/05/09 03:31:53;;;;;;;9.35;4.00;;;;;;;;;;5094437;28;20093;-68
2022/05/09 03:34:20;;;;;;;14.15;4.63;;;;;;;;;;5103248;27;20297;-68
2022/05/09 03:36:46;;;;;;;6.53;3.42;;;;;;;;;;5113791;27;20064;-68
2022/05/09 03:39:12;;;;;;;9.57;3.55;;;;;;;;;;5112931;27;20054;-68
2022/05/09 03:41:38;;;;;;;7.68;4.28;;;;;;;;;;5108784;28;20044;-67
2022/05/09 03:44:05;;;;;;;11.45;4.43;;;;;;;;;;5104399;27;20123;-68
2022/05/09 03:46:31;;;;;;;16.48;4.75;;;;;;;;;;5110614;27;20046;-68
2022/05/09 03:48:58;;;;;;;9.02;3.90;;;;;;;;;;5113186;27;20641;-69
2022/05/09 03:51:24;;;;;;;8.43;4.47;;;;;;;;;;5103814;28;20420;-68
2022/05/09 03:53:50;;;;;;;7.90;4.55;;;;;;;;;;5112777;27;20044;-68
2022/05/09 03:56:16;;;;;;;8.40;4.60;;;;;;;;;;5109471;27;20039;-68
2022/05/09 03:58:42;;;;;;;10.30;4.10;;;;;;;;;;5112355;27;20039;-69
2022/05/09 04:01:08;;;;;;;9.13;4.60;;;;;;;;;;5108857;28;20481;-68
2022/05/09 04:03:34;;;;;;;10.02;4.55;;;;;;;;;;5108071;28;20039;-68
2022/05/09 04:06:01;;;;;;;9.77;4.20;;;;;;;;;;5109362;28;20090;-68
2022/05/09 04:08:27;;;;;;;7.82;4.32;;;;;;;;;;5112123;27;20505;-68
2022/05/09 04:10:55;;;;;;;16.92;5.43;;;;;;;;;;5111754;28;20092;-68
2022/05/09 04:13:21;;;;;;;7.78;4.25;;;;;;;;;;5106613;28;20047;-68
2022/05/09 04:18:37;;;;;;;10.18;4.95;;;;;;;;;;5105800;27;20343;-68
2022/05/09 04:21:03;;;;;;;12.35;4.75;;;;;;;;;;5114986;27;20497;-68
2022/05/09 04:23:29;;;;;;;13.70;6.07;;;;;;;;;;5117221;27;20085;-68
2022/05/09 04:25:55;;;;;;;8.35;4.80;;;;;;;;;;5119586;27;20035;-68
2022/05/09 04:28:22;;;;;;;10.57;6.20;;;;;;;;;;5105987;27;20046;-68
2022/05/09 04:30:49;;;;;;;13.65;5.40;;;;;;;;;;5111803;28;20046;-68
2022/05/09 04:33:16;;;;;;;10.40;5.05;;;;;;;;;;5111380;28;20043;-68
2022/05/09 04:35:42;;;;;;;16.38;4.80;;;;;;;;;;5103786;27;20043;-68
2022/05/09 04:38:13;;;;;;;12.48;4.70;;;;;;;;;;5106462;28;20085;-68
2022/05/09 04:40:41;;;;;;;12.70;4.90;;;;;;;;;;5101973;28;20213;-68
2022/05/09 04:43:07;;;;;;;8.07;4.60;;;;;;;;;;5112483;27;20039;-68
2022/05/09 04:45:34;;;;;;;16.88;5.90;;;;;;;;;;5087178;28;20082;-68
2022/05/09 04:48:00;;;;;;;11.38;6.05;;;;;;;;;;5101979;27;20088;-68
2022/05/09 04:50:27;;;;;;;11.88;5.07;;;;;;;;;;5106372;27;20028;-68
2022/05/09 04:52:54;;;;;;;11.48;5.55;;;;;;;;;;5114596;27;20059;-68
2022/05/09 04:55:20;;;;;;;10.18;6.50;;;;;;;;;;5108973;28;20039;-68
2022/05/09 04:57:49;;;;;;;14.95;6.05;;;;;;;;;;5112984;28;20065;-68
2022/05/09 05:00:17;;;;;;;15.15;6.03;;;;;;;;;;5108752;27;20039;-68
2022/05/09 05:02:43;;;;;;;11.00;6.20;;;;;;;;;;5116325;27;20042;-68
2022/05/09 05:05:10;;;;;;;14.32;6.20;;;;;;;;;;5096579;27;22209;-68
2022/05/09 05:07:36;;;;;;;13.15;5.95;;;;;;;;;;5096520;27;20036;-69
2022/05/09 05:10:03;;;;;;;20.08;6.40;;;;;;;;;;5092894;28;20063;-69
2022/05/09 05:12:29;;;;;;;16.13;7.30;;;;;;;;;;5108433;27;20437;-69
2022/05/09 05:14:56;;;;;;;13.23;5.78;;;;;;;;;;5103448;27;20122;-71
2022/05/09 05:17:22;;;;;;;22.42;7.05;;;;;;;;;;5101468;28;20516;-69
2022/05/09 05:19:49;;;;;;;16.65;7.10;;;;;;;;;;5112127;27;20381;-69
2022/05/09 05:22:16;;;;;;;14.73;6.57;;;;;;;;;;5112055;28;20230;-69
2022/05/09 05:24:47;;;;;;;15.52;6.85;;;;;;;;;;5110679;27;20486;-69
2022/05/09 05:27:14;;;;;;;12.45;6.68;;;;;;;;;;5115472;27;20047;-69
2022/05/09 05:29:41;;;;;;;11.75;6.45;;;;;;;;;;5107239;27;20039;-69
2022/05/09 05:32:17;;;;;;;20.92;7.90;;;;;;;;;;5107997;27;20077;-69
2022/05/09 05:34:44;;;;;;;13.88;7.30;;;;;;;;;;5110264;27;20043;-69
2022/05/09 05:37:10;;;;;;;12.38;7.10;;;;;;;;;;5106139;27;20554;-69
2022/05/09 05:39:41;;;;;;;23.00;7.90;;;;;;;;;;5094892;27;20056;-69
2022/05/09 05:42:07;;;;;;;17.42;8.35;;;;;;;;;;5104530;27;20181;-69
2022/05/09 05:44:34;;;;;;;10.38;6.07;;;;;;;;;;5107936;27;20035;-69
2022/05/09 05:47:04;;;;;;;17.17;6.88;;;;;;;;;;5113344;27;20043;-69
2022/05/09 05:49:33;;;;;;;16.33;5.97;;;;;;;;;;5110177;28;20077;-69
2022/05/09 05:52:02;;;;;;;15.88;7.32;;;;;;;;;;5111954;27;20040;-69
2022/05/09 05:54:29;;;;;;;17.58;7.03;;;;;;;;;;5111703;27;20046;-69
2022/05/09 05:56:56;;;;;;;9.88;6.18;;;;;;;;;;5103227;27;20054;-69
2022/05/09 05:59:22;;;;;;;17.08;6.28;;;;;;;;;;5112310;27;20075;-69
2022/05/09 06:01:51;;;;;;;10.32;6.13;;;;;;;;;;5113965;27;20047;-69
2022/05/09 06:04:17;;;;;;;13.82;6.60;;;;;;;;;;5111664;27;20087;-70
2022/05/09 06:06:44;;;;;;;17.60;6.47;;;;;;;;;;5113021;27;20555;-69
2022/05/09 06:09:11;;;;;;;13.98;7.50;;;;;;;;;;5114335;27;20035;-66
2022/05/09 06:11:38;;;;;;;17.98;8.65;;;;;;;;;;5114233;27;20043;-66
2022/05/09 06:14:05;;;;;;;11.55;7.20;;;;;;;;;;5113453;27;20035;-66
2022/05/09 06:16:31;;;;;;;13.80;7.18;;;;;;;;;;5104725;27;20122;-66
2022/05/09 06:18:59;;;;;;;14.65;7.75;;;;;;;;;;5112179;27;20046;-66
2022/05/09 06:21:25;;;;;;;18.27;7.95;;;;;;;;;;5112601;27;20047;-67
2022/05/09 06:23:51;;;;;;;12.25;6.72;;;;;;;;;;5109571;27;20457;-66
2022/05/09 06:26:20;;;;;;;15.55;6.72;;;;;;;;;;5112249;27;20459;-67
2022/05/09 06:28:46;;;;;;;13.32;7.38;;;;;;;;;;5114127;27;20043;-67
2022/05/09 06:31:12;;;;;;;14.40;6.97;;;;;;;;;;5112717;27;20043;-66
2022/05/09 06:33:38;;;;;;;13.23;7.18;;;;;;;;;;5114201;27;20048;-66
2022/05/09 06:36:05;;;;;;;12.40;6.78;;;;;;;;;;5097898;27;20050;-67
2022/05/09 06:38:33;;;;;;;12.95;7.55;;;;;;;;;;5114678;27;20039;-67
2022/05/09 06:41:00;;;;;;;14.18;6.25;;;;;;;;;;5109818;27;20570;-66
2022/05/09 06:43:30;;;;;;;14.18;6.32;;;;;;;;;;5117324;27;20046;-66
2022/05/09 06:45:56;;;;;;;13.32;7.00;;;;;;;;;;5099672;27;20044;-67
2022/05/09 06:48:23;;;;;;;22.77;7.38;;;;;;;;;;5110927;27;20096;-68
2022/05/09 06:50:49;;;;;;;15.43;7.45;;;;;;;;;;5108484;28;20374;-68
2022/05/09 06:53:15;;;;;;;12.00;6.40;;;;;;;;;;5110312;28;20120;-68
2022/05/09 06:55:41;;;;;;;15.13;6.78;;;;;;;;;;5107301;27;20101;-68
2022/05/09 06:58:12;;;;;;;22.17;7.63;;;;;;;;;;5111212;27;20085;-68
2022/05/09 07:00:38;;;;;;;20.90;7.15;;;;;;;;;;5112455;27;20602;-68
2022/05/09 07:03:05;;;;;;;18.25;6.93;;;;;;;;;;5106422;28;20086;-68
2022/05/09 07:05:32;;;;;;;12.80;6.43;;;;;;;;;;5107152;28;20276;-69
2022/05/09 07:07:58;;;;;;;10.85;5.70;;;;;;;;;;5112884;27;20087;-68
2022/05/09 07:10:27;;;;;;;13.15;6.22;;;;;;;;;;5113714;27;20036;-68
2022/05/09 07:12:54;;;;;;;12.48;5.75;;;;;;;;;;5115565;27;20603;-69
2022/05/09 07:15:26;;;;;;;13.75;6.55;;;;;;;;;;5113823;27;20051;-68
2022/05/09 07:17:53;;;;;;;14.75;5.75;;;;;;;;;;5113374;27;20497;-69
2022/05/09 07:20:20;;;;;;;15.77;6.35;;;;;;;;;;5107469;28;20043;-69
2022/05/09 07:22:47;;;;;;;12.68;6.28;;;;;;;;;;5106590;27;20034;-69
2022/05/09 07:25:14;;;;;;;16.30;6.63;;;;;;;;;;5113328;27;20031;-68
2022/05/09 07:27:44;;;;;;;17.05;5.50;;;;;;;;;;5110769;27;20043;-69
2022/05/09 07:30:14;;;;;;;14.20;6.45;;;;;;;;;;5113250;27;20040;-68
2022/05/09 07:32:41;;;;;;;9.48;5.00;;;;;;;;;;5116196;27;20100;-69
2022/05/09 07:35:10;;;;;;;14.32;6.32;;;;;;;;;;5103344;27;20048;-68
2022/05/09 07:37:38;;;;;;;17.17;6.50;;;;;;;;;;5111289;27;20081;-69
2022/05/09 07:40:05;;;;;;;13.15;5.85;;;;;;;;;;5113431;27;20040;-69
2022/05/09 07:42:34;;;;;;;14.27;6.40;;;;;;;;;;5108966;27;20091;-69
2022/05/09 07:45:01;;;;;;;12.85;6.90;;;;;;;;;;5112851;27;20122;-69
2022/05/09 07:47:27;;;;;;;13.60;6.20;;;;;;;;;;5112774;27;20043;-69
2022/05/09 07:49:53;;;;;;;9.43;6.20;;;;;;;;;;5106735;27;20394;-69
2022/05/09 07:52:19;;;;;;;10.30;6.05;;;;;;;;;;5071011;28;20489;-69
2022/05/09 07:54:46;;;;;;;13.30;6.30;;;;;;;;;;5108867;27;20043;-70
2022/05/09 07:57:13;;;;;;;11.30;5.80;;;;;;;;;;5111645;28;20101;-69
2022/05/09 07:59:40;;;;;;;14.15;6.75;;;;;;;;;;5111343;27;20110;-69
2022/05/09 08:02:06;;;;;;;10.18;5.13;;;;;;;;;;5107321;28;20118;-69
2022/05/09 08:04:32;;;;;;;16.45;6.45;;;;;;;;;;5109195;27;20515;-69
2022/05/09 08:06:59;;;;;;;18.88;6.85;;;;;;;;;;5111359;28;20046;-69
2022/05/09 08:09:25;;;;;;;13.55;5.18;;;;;;;;;;5091933;28;20039;-69
2022/05/09 08:11:51;;;;;;;16.67;6.55;;;;;;;;;;5109316;28;20109;-69
2022/05/09 08:14:17;;;;;;;11.35;5.90;;;;;;;;;;5107430;28;20438;-69
2022/05/09 08:16:44;;;;;;;13.40;5.85;;;;;;;;;;5109029;28;20051;-69
2022/05/09 08:19:11;;;;;;;14.85;4.90;;;;;;;;;;5107273;28;20059;-69
2022/05/09 08:21:38;;;;;;;15.02;6.18;;;;;;;;;;5090795;28;20219;-69
2022/05/09 08:24:05;;;;;;;9.00;4.97;;;;;;;;;;5107460;28;20040;-69
2022/05/09 08:26:31;;;;;;;10.82;4.72;;;;;;;;;;5112528;28;20501;-70
2022/05/09 08:28:58;;;;;;;12.63;4.93;;;;;;;;;;5112030;28;20126;-69
2022/05/09 08:31:24;;;;;;;14.27;5.13;;;;;;;;;;5113823;28;20040;-69
2022/05/09 08:33:51;;;;;;;12.20;5.03;;;;;;;;;;5109166;28;20519;-69
2022/05/09 08:39:03;;;;;;;13.50;4.85;;;;;;;;;;5107310;28;20052;-69
2022/05/09 08:41:32;;;;;;;11.63;5.50;;;;;;;;;;5108783;28;20500;-70
2022/05/09 08:44:10;;;;;;;11.30;5.75;;;;;;;;;;5109120;28;20504;-69
2022/05/09 08:46:40;;;;;;;10.10;5.53;;;;;;;;;;5112449;28;20262;-69
2022/05/09 08:49:27;;;;;;;11.75;5.63;;;;;;;;;;5112610;28;20449;-69
2022/05/09 08:51:56;;;;;;;14.32;5.50;;;;;;;;;;5098467;28;20082;-70
2022/05/09 08:54:23;;;;;;;12.15;4.75;;;;;;;;;;5110668;28;20129;-70
2022/05/09 08:56:56;;;;;;;16.70;5.22;;;;;;;;;;5109002;28;20036;-70
2022/05/09 08:59:29;;;;;;;9.40;4.70;;;;;;;;;;5108417;28;20067;-69
2022/05/09 09:02:05;;;;;;;8.52;4.63;;;;;;;;;;5112193;28;20043;-70
2022/05/09 09:04:33;;;;;;;9.13;4.55;;;;;;;;;;5107458;28;20101;-70
2022/05/09 09:07:18;;;;;;;9.90;4.63;;;;;;;;;;5112626;28;20190;-70
2022/05/09 09:09:53;;;;;;;11.05;3.95;;;;;;;;;;5101581;28;20069;-70
2022/05/09 09:12:38;;;;;;;9.70;4.15;;;;;;;;;;5113536;27;20089;-70
2022/05/09 09:15:11;;;;;;;12.07;4.65;;;;;;;;;;5112052;27;20104;-70
2022/05/09 09:17:44;;;;;;;14.18;4.63;;;;;;;;;;5110057;27;20048;-70
2022/05/09 09:20:25;;;;;;;9.32;4.20;;;;;;;;;;5109233;27;20051;-70
2022/05/09 09:22:54;;;;;;;9.55;6.47;;;;;;;;;;5107605;28;20107;-70
2022/05/09 09:25:23;;;;;;;14.10;4.70;;;;;;;;;;5110246;28;20039;-70
2022/05/09 09:27:53;;;;;;;12.90;4.13;;;;;;;;;;5108368;27;20501;-70
2022/05/09 09:30:24;;;;;;;10.45;4.35;;;;;;;;;;5105254;27;20098;-70
2022/05/09 09:32:56;;;;;;;10.65;4.15;;;;;;;;;;5117637;27;20069;-70
2022/05/09 09:35:31;;;;;;;9.32;2.72;;;;;;;;;;5105411;27;20071;-70
2022/05/09 09:38:06;;;;;;;6.75;2.58;;;;;;;;;;5114629;27;20504;-70
2022/05/09 09:40:33;;;;;;;7.15;3.38;;;;;;;;;;5106511;28;20052;-70
2022/05/09 09:42:59;;;;;;;6.65;3.20;;;;;;;;;;5111631;27;20063;-70
2022/05/09 09:45:32;;;;;;;19.48;4.18;;;;;;;;;;5091046;28;20051;-71
2022/05/09 09:48:13;;;;;;;7.35;2.88;;;;;;;;;;5112403;27;20071;-70
2022/05/09 09:50:51;;;;;;;15.73;3.55;;;;;;;;;;5107731;28;20082;-70
2022/05/09 09:53:35;;;;;;;8.82;3.30;;;;;;;;;;5110571;28;20036;-70
2022/05/09 09:56:08;;;;;;;6.22;2.90;;;;;;;;;;5109644;28;20044;-70
2022/05/09 09:58:34;;;;;;;9.05;3.20;;;;;;;;;;5109309;28;20051;-70
2022/05/09 10:01:10;;;;;;;8.45;3.45;;;;;;;;;;5111065;28;20516;-70
2022/05/09 10:03:38;;;;;;;7.70;2.88;;;;;;;;;;5110336;28;20473;-71
2022/05/09 10:06:04;;;;;;;7.20;3.08;;;;;;;;;;5115649;27;20434;-71
2022/05/09 10:08:35;;;;;;;7.45;2.80;;;;;;;;;;5113777;27;20108;-70
2022/05/09 10:11:10;;;;;;;6.78;2.85;;;;;;;;;;5112362;27;20130;-70
2022/05/09 10:13:44;;;;;;;8.52;3.63;;;;;;;;;;5114734;27;20506;-71
2022/05/09 10:16:24;;;;;;;8.63;3.58;;;;;;;;;;5110010;27;20082;-71
2022/05/09 10:18:50;;;;;;;12.27;3.50;;;;;;;;;;5108522;28;20054;-71
2022/05/09 10:24:47;;;;;;;9.05;3.60;;;;;;;;;;5067268;28;20044;-71
2022/05/09 10:27:28;;;;;;;8.18;3.03;;;;;;;;;;5102325;27;20491;-68
2022/05/09 10:30:00;;;;;;;11.13;3.20;;;;;;;;;;5102794;27;20051;-69
2022/05/09 10:32:32;;;;;;;12.93;3.30;;;;;;;;;;5110510;28;20039;-69
2022/05/09 10:35:01;;;;;;;7.80;3.10;;;;;;;;;;5110831;27;20424;-71
2022/05/09 10:37:38;;;;;;;6.55;3.35;;;;;;;;;;5114468;27;20046;-69
2022/05/09 10:40:14;;;;;;;10.57;3.95;;;;;;;;;;5100983;27;20047;-69
2022/05/09 10:42:45;;;;;;;8.40;3.60;;;;;;;;;;5111565;27;20059;-69
2022/05/09 10:45:20;;;;;;;5.80;3.22;;;;;;;;;;5114391;27;20055;-69
2022/05/09 10:47:49;;;;;;;8.88;3.58;;;;;;;;;;5107571;28;20404;-69
2022/05/09 10:50:15;;;;;;;9.10;3.28;;;;;;;;;;5109451;28;20461;-69
2022/05/09 10:53:05;;;;;;;12.63;3.80;;;;;;;;;;5109598;28;20039;-70
2022/05/09 10:55:35;;;;;;;6.20;2.60;;;;;;;;;;5108925;28;20040;-69
2022/05/09 10:58:01;;;;;;;9.43;3.42;;;;;;;;;;5110427;28;20545;-69
2022/05/09 11:00:28;;;;;;;5.90;3.25;;;;;;;;;;5108721;28;20118;-70
2022/05/09 11:02:57;;;;;;;8.45;3.97;;;;;;;;;;5093054;28;20552;-69
2022/05/09 11:05:24;;;;;;;8.13;3.95;;;;;;;;;;5107591;28;20046;-69
2022/05/09 11:08:05;;;;;;;9.23;3.55;;;;;;;;;;5108594;28;20137;-69
2022/05/09 11:10:45;;;;;;;5.05;2.85;;;;;;;;;;5108437;28;20048;-70
2022/05/09 11:13:24;;;;;;;10.55;5.07;;;;;;;;;;5107232;28;20052;-70
2022/05/09 11:16:17;;;;;;;10.20;2.90;;;;;;;;;;5105745;28;20101;-70
2022/05/09 11:19:01;;;;;;;5.88;3.08;;;;;;;;;;5111138;27;20457;-70
2022/05/09 11:21:27;;;;;;;9.70;3.17;;;;;;;;;;5100762;27;20425;-70
2022/05/09 11:24:00;;;;;;;9.45;2.83;;;;;;;;;;5111842;27;20035;-71
2022/05/09 11:26:32;;;;;;;10.95;3.97;;;;;;;;;;5112210;27;20039;-70
2022/05/09 11:29:35;;;;;;;10.63;3.38;;;;;;;;;;5107749;28;20535;-70
2022/05/09 11:32:01;;;;;;;;;;;;;;;;;;5049641;28;20378;-69
2022/05/09 11:34:30;;;;;;;10.43;3.05;;;;;;;;;;5098696;27;19962;-70
2022/05/09 11:37:06;;;;;;;8.07;2.78;;;;;;;;;;5111309;27;20126;-70
2022/05/09 11:40:11;;;;;;;7.60;2.95;;;;;;;;;;5112854;27;20050;-71
2022/05/09 11:45:59;;;;;;;7.55;3.30;;;;;;;;;;5065422;28;20422;-70
2022/05/09 11:48:44;;;;;;;8.63;2.97;;;;;;;;;;5100987;27;20130;-70
2022/05/09 11:51:20;;;;;;;11.93;3.75;;;;;;;;;;5103386;28;20370;-70
2022/05/09 11:53:49;;;;;;;7.38;3.60;;;;;;;;;;5109049;28;20039;-70
2022/05/09 11:56:15;;;;;;;7.63;2.97;;;;;;;;;;5106302;28;20439;-70
2022/05/09 11:58:43;;;;;;;10.73;3.30;;;;;;;;;;5107576;28;20055;-70
2022/05/09 12:01:09;;;;;;;10.27;3.20;;;;;;;;;;5112443;27;20047;-70
2022/05/09 12:03:42;;;;;;;8.68;2.95;;;;;;;;;;5094311;28;20724;-70
2022/05/09 12:06:12;;;;;;;13.05;3.17;;;;;;;;;;5105324;27;20548;-71
2022/05/09 12:08:41;;;;;;;8.45;3.53;;;;;;;;;;5108047;28;20047;-70
2022/05/09 12:11:24;;;;;;;6.65;3.50;;;;;;;;;;5107769;28;20051;-71
2022/05/09 12:13:51;;;;;;;10.00;3.45;;;;;;;;;;5107844;28;20401;-70
2022/05/09 12:16:36;;;;;;;4.80;2.47;;;;;;;;;;5099438;28;20064;-70
2022/05/09 12:19:06;;;;;;;5.72;2.92;;;;;;;;;;5107308;28;20047;-70
2022/05/09 12:21:37;;;;;;;7.13;3.00;;;;;;;;;;5109421;28;20047;-71
2022/05/09 12:24:12;;;;;;;6.35;2.75;;;;;;;;;;5111954;28;20046;-71
2022/05/09 12:26:40;;;;;;;9.80;3.97;;;;;;;;;;5112755;28;20485;-71
2022/05/09 12:29:12;;;;;;;6.57;3.25;;;;;;;;;;5093684;28;20047;-71
2022/05/09 12:31:57;;;;;;;8.10;2.72;;;;;;;;;;5104210;28;20043;-70
2022/05/09 12:34:49;;;;;;;8.65;3.50;;;;;;;;;;5105465;28;20071;-70
2022/05/09 12:37:18;;;;;;;8.40;3.05;;;;;;;;;;5109663;28;20083;-70
2022/05/09 12:39:49;;;;;;;8.18;3.28;;;;;;;;;;5106054;27;20039;-71
2022/05/09 12:42:29;;;;;;;7.50;2.80;;;;;;;;;;5105254;27;20056;-70
2022/05/09 12:44:57;;;;;;;9.43;3.60;;;;;;;;;;5102206;27;20040;-71
2022/05/09 12:47:31;;;;;;;9.93;2.92;;;;;;;;;;5109437;28;20556;-69
2022/05/09 12:49:59;;;;;;;7.18;3.25;;;;;;;;;;5105897;27;20051;-70
2022/05/09 12:52:33;;;;;;;5.28;2.95;;;;;;;;;;5098278;27;20531;-70
2022/05/09 12:57:46;;;;;;;9.98;3.50;;;;;;;;;;5095030;27;20184;-70
2022/05/09 13:00:21;;;;;;;6.55;2.90;;;;;;;;;;5111491;27;20055;-70
2022/05/09 13:02:47;;;;;;;5.63;2.53;;;;;;;;;;5102132;27;20044;-69
2022/05/09 13:05:14;;;;;;;5.38;2.63;;;;;;;;;;5111836;27;20043;-70
2022/05/09 13:08:00;;;;;;;8.35;3.15;;;;;;;;;;5112291;27;20118;-70
2022/05/09 13:10:26;;;;;;;6.43;2.90;;;;;;;;;;5098576;27;20450;-69
2022/05/09 13:12:57;;;;;;;7.15;2.45;;;;;;;;;;5103605;27;20054;-69
2022/05/09 13:15:23;;;;;;;6.68;2.80;;;;;;;;;;5103079;27;20562;-69
2022/05/09 13:17:58;;;;;;;8.93;2.83;;;;;;;;;;5106345;27;20046;-69
2022/05/09 13:20:25;;;;;;;6.85;2.85;;;;;;;;;;5093080;28;20469;-70
2022/05/09 13:22:51;;;;;;;5.47;2.88;;;;;;;;;;5108418;27;20035;-70
2022/05/09 13:25:34;;;;;;;4.25;2.20;;;;;;;;;;5110970;28;20036;-69
2022/05/09 13:28:01;;;;;;;10.02;2.80;;;;;;;;;;5098604;28;20115;-70
2022/05/09 13:30:32;;;;;;;6.53;3.00;;;;;;;;;;5116927;27;20047;-70
2022/05/09 13:32:58;;;;;;;6.85;2.85;;;;;;;;;;5111966;27;20131;-70
2022/05/09 13:35:24;;;;;;;10.30;2.63;;;;;;;;;;5106168;27;20485;-70
2022/05/09 13:37:52;;;;;;;5.55;2.38;;;;;;;;;;5106139;27;20040;-69
2022/05/09 13:40:19;;;;;;;7.47;3.33;;;;;;;;;;5093867;28;20039;-70
2022/05/09 13:42:47;;;;;;;6.05;2.20;;;;;;;;;;5108138;27;20051;-69
2022/05/09 13:45:17;;;;;;;6.05;2.20;;;;;;;;;;5111283;28;20173;-69
2022/05/09 13:47:45;;;;;;;4.65;2.20;;;;;;;;;;5105147;28;20044;-69
2022/05/09 13:50:13;;;;;;;6.63;2.55;;;;;;;;;;5106802;27;20048;-69
2022/05/09 13:52:39;;;;;;;8.45;3.10;;;;;;;;;;5109572;27;20619;-70
2022/05/09 13:55:07;;;;;;;6.32;2.70;;;;;;;;;;5103888;27;20043;-69
2022/05/09 13:57:35;;;;;;;6.68;3.40;;;;;;;;;;5108755;28;20043;-69
2022/05/09 14:00:22;;;;;;;7.28;3.00;;;;;;;;;;5112813;27;20039;-69
2022/05/09 14:03:00;;;;;;;7.07;2.88;;;;;;;;;;5101114;27;20043;-68
2022/05/09 14:05:28;;;;;;;6.20;2.72;;;;;;;;;;5107389;27;20047;-69
2022/05/09 14:07:56;;;;;;;7.10;2.47;;;;;;;;;;5113690;27;20484;-69
2022/05/09 14:10:28;;;;;;;4.93;2.60;;;;;;;;;;5100552;27;20047;-69
2022/05/09 14:12:55;;;;;;;8.77;2.45;;;;;;;;;;5095864;28;20039;-69
2022/05/09 14:15:23;;;;;;;6.97;3.28;;;;;;;;;;5114589;27;20036;-69
2022/05/09 14:17:59;;;;;;;7.38;2.40;;;;;;;;;;5092734;27;20035;-69
2022/05/09 14:20:31;;;;;;;4.72;2.10;;;;;;;;;;5112097;27;20137;-69
2022/05/09 14:22:58;;;;;;;8.68;3.03;;;;;;;;;;5112636;27;20120;-69
2022/05/09 14:31:19;;;;;;;7.07;2.28;;;;;;;;;;5112569;27;20086;-69
2022/05/09 14:33:45;;;;;;;6.88;2.70;;;;;;;;;;5105245;28;20052;-69
2022/05/09 14:36:29;;;;;;;7.10;2.60;;;;;;;;;;5112158;27;20325;-69
2022/05/09 14:38:57;;;;;;;7.28;3.38;;;;;;;;;;5113909;27;20043;-69
2022/05/09 14:41:44;;;;;;;7.43;2.42;;;;;;;;;;5115201;27;20137;-70
2022/05/09 14:44:20;;;;;;;13.10;2.55;;;;;;;;;;5108536;28;20267;-70
2022/05/09 14:47:00;;;;;;;3.90;2.60;;;;;;;;;;5109354;28;20040;-70
2022/05/09 14:49:26;;;;;;;6.93;3.25;;;;;;;;;;5107067;28;20054;-70
2022/05/09 14:52:11;;;;;;;5.85;2.40;;;;;;;;;;5107796;28;20039;-70
2022/05/09 14:57:52;;;;;;;14.25;3.90;;;;;;;;;;5101953;27;20039;-70
2022/05/09 15:00:19;;;;;;;7.82;2.47;;;;;;;;;;5108526;28;20044;-70
2022/05/09 15:03:00;;;;;;;4.10;2.65;;;;;;;;;;5108416;28;20118;-70
2022/05/09 15:05:26;;;;;;;9.05;2.72;;;;;;;;;;5106549;27;20042;-70
2022/05/09 15:07:53;;;;;;;6.63;2.90;;;;;;;;;;5112491;27;20389;-70
2022/05/09 15:10:20;;;;;;;3.75;2.22;;;;;;;;;;5111606;27;20131;-70
2022/05/09 15:12:47;;;;;;;8.27;2.38;;;;;;;;;;5106892;27;20054;-70
2022/05/09 15:15:15;;;;;;;7.10;2.42;;;;;;;;;;5091642;28;20527;-70
2022/05/09 15:17:41;;;;;;;6.18;2.78;;;;;;;;;;5108760;28;20052;-70
2022/05/09 15:20:08;;;;;;;7.65;2.53;;;;;;;;;;5110453;27;20040;-70